sensor_id;sensor_type;location;lat;lon;timestamp;pressure;altitude;pressure_sealevel;temperature;humidity
71195;BME280;58908;51.426;7.714;2022-08-01T00:00:33;99780.59;;;18.38;100.00
71195;BME280;58908;51.426;7.714;2022-08-01T00:02:59;99774.00;;;18.42;100.00
71195;BME280;58908;51.426;7.714;2022-08-01T00:05:24;99773.84;;;18.34;100.00
71195;BME280;58908;51.426;7.714;2022-08-01T00:07:49;99771.88;;;18.36;100.00
71195;BME280;58908;51.426;7.714;2022-08-01T00:10:15;99768.78;;;18.40;100.00
71195;BME280;58908;51.426;7.714;2022-08-01T00:12:41;99773.84;;;18.34;100.00
71195;BME280;58908;51.426;7.714;2022-08-01T00:15:07;99772.72;;;18.36;100.00
71195;BME280;58908;51.426;7.714;2022-08-01T00:17:32;99764.84;;;18.35;100.00
71195;BME280;58908;51.426;7.714;2022-08-01T00:19:57;99776.22;;;18.37;100.00
71195;BME280;58908;51.426;7.714;2022-08-01T00:22:22;99776.50;;;18.34;100.00
71195;BME280;58908;51.426;7.714;2022-08-01T00:24:48;99771.81;;;18.26;100.00
71195;BME280;58908;51.426;7.714;2022-08-01T00:27:13;99767.31;;;18.27;100.00
71195;BME280;58908;51.426;7.714;2022-08-01T00:29:38;99770.97;;;18.26;100.00
71195;BME280;58908;51.426;7.714;2022-08-01T00:32:03;99762.41;;;18.22;100.00
71195;BME280;58908;51.426;7.714;2022-08-01T00:34:29;99767.00;;;18.20;100.00
71195;BME280;58908;51.426;7.714;2022-08-01T00:36:54;99769.44;;;18.23;100.00
71195;BME280;58908;51.426;7.714;2022-08-01T00:39:19;99767.88;;;18.21;100.00
71195;BME280;58908;51.426;7.714;2022-08-01T00:41:44;99767.00;;;18.20;100.00
71195;BME280;58908;51.426;7.714;2022-08-01T00:44:09;99763.78;;;18.17;100.00
71195;BME280;58908;51.426;7.714;2022-08-01T00:46:34;99765.88;;;18.13;100.00
71195;BME280;58908;51.426;7.714;2022-08-01T00:49:00;99768.66;;;18.12;100.00
71195;BME280;58908;51.426;7.714;2022-08-01T00:51:25;99767.28;;;18.17;100.00
71195;BME280;58908;51.426;7.714;2022-08-01T00:53:51;99772.91;;;18.14;100.00
71195;BME280;58908;51.426;7.714;2022-08-01T00:56:17;99765.16;;;18.11;100.00
71195;BME280;58908;51.426;7.714;2022-08-01T00:58:42;99765.16;;;18.11;100.00
71195;BME280;58908;51.426;7.714;2022-08-01T01:01:08;99763.03;;;18.15;100.00
71195;BME280;58908;51.426;7.714;2022-08-01T01:03:33;99768.78;;;18.10;100.00
71195;BME280;58908;51.426;7.714;2022-08-01T01:06:01;99768.34;;;18.05;100.00
71195;BME280;58908;51.426;7.714;2022-08-01T01:08:31;99772.03;;;18.14;100.00
71195;BME280;58908;51.426;7.714;2022-08-01T01:11:03;99766.00;;;18.12;100.00
71195;BME280;58908;51.426;7.714;2022-08-01T01:15:58;99764.13;;;18.03;100.00
71195;BME280;58908;51.426;7.714;2022-08-01T01:18:24;99774.13;;;18.10;100.00
71195;BME280;58908;51.426;7.714;2022-08-01T01:21:13;99770.91;;;18.07;100.00
71195;BME280;58908;51.426;7.714;2022-08-01T01:26:21;99758.69;;;18.14;100.00
71195;BME280;58908;51.426;7.714;2022-08-01T01:31:25;99771.34;;;18.12;100.00
71195;BME280;58908;51.426;7.714;2022-08-01T01:33:52;99767.69;;;18.13;100.00
71195;BME280;58908;51.426;7.714;2022-08-01T01:36:18;99772.03;;;18.14;100.00
71195;BME280;58908;51.426;7.714;2022-08-01T01:38:44;99772.75;;;18.16;100.00
71195;BME280;58908;51.426;7.714;2022-08-01T01:41:10;99775.56;;;18.14;100.00
71195;BME280;58908;51.426;7.714;2022-08-01T01:43:36;99775.97;;;18.10;100.00
71195;BME280;58908;51.426;7.714;2022-08-01T01:46:02;99772.03;;;18.14;100.00
71195;BME280;58908;51.426;7.714;2022-08-01T01:48:28;99780.19;;;18.12;100.00
71195;BME280;58908;51.426;7.714;2022-08-01T01:50:53;99776.78;;;18.10;100.00
71195;BME280;58908;51.426;7.714;2022-08-01T01:53:20;99779.06;;;18.15;100.00
71195;BME280;58908;51.426;7.714;2022-08-01T01:55:47;99774.84;;;18.12;100.00
71195;BME280;58908;51.426;7.714;2022-08-01T01:58:13;99779.34;;;18.12;100.00
71195;BME280;58908;51.426;7.714;2022-08-01T02:00:40;99783.28;;;18.08;100.00
71195;BME280;58908;51.426;7.714;2022-08-01T02:03:06;99778.63;;;18.10;100.00
71195;BME280;58908;51.426;7.714;2022-08-01T02:05:32;99784.09;;;18.08;100.00
71195;BME280;58908;51.426;7.714;2022-08-01T02:07:59;99784.97;;;18.09;100.00
71195;BME280;58908;51.426;7.714;2022-08-01T02:10:25;99785.09;;;18.07;100.00
71195;BME280;58908;51.426;7.714;2022-08-01T02:12:51;99774.28;;;18.09;100.00
71195;BME280;58908;51.426;7.714;2022-08-01T02:15:17;99774.13;;;18.10;100.00
71195;BME280;58908;51.426;7.714;2022-08-01T02:17:44;99782.28;;;18.09;100.00
71195;BME280;58908;51.426;7.714;2022-08-01T02:20:10;99777.78;;;18.09;100.00
71195;BME280;58908;51.426;7.714;2022-08-01T02:22:52;99778.06;;;18.06;100.00
71195;BME280;58908;51.426;7.714;2022-08-01T02:28:29;99776.78;;;18.10;100.00
71195;BME280;58908;51.426;7.714;2022-08-01T02:30:35;99783.97;;;18.10;100.00
71195;BME280;58908;51.426;7.714;2022-08-01T02:35:33;99779.75;;;18.07;100.00
71195;BME280;58908;51.426;7.714;2022-08-01T02:38:00;99776.66;;;18.12;100.00
71195;BME280;58908;51.426;7.714;2022-08-01T02:40:27;99783.84;;;18.11;100.00
71195;BME280;58908;51.426;7.714;2022-08-01T02:42:53;99775.38;;;18.06;100.00
71195;BME280;58908;51.426;7.714;2022-08-01T02:45:20;99781.59;;;18.07;100.00
71195;BME280;58908;51.426;7.714;2022-08-01T02:47:47;99784.38;;;18.05;100.00
71195;BME280;58908;51.426;7.714;2022-08-01T02:50:14;99783.50;;;18.05;100.00
71195;BME280;58908;51.426;7.714;2022-08-01T02:52:41;99784.66;;;18.02;100.00
71195;BME280;58908;51.426;7.714;2022-08-01T02:55:08;99784.50;;;18.04;100.00
71195;BME280;58908;51.426;7.714;2022-08-01T02:57:34;99780.72;;;18.06;100.00
71195;BME280;58908;51.426;7.714;2022-08-01T03:00:02;99784.66;;;18.02;100.00
71195;BME280;58908;51.426;7.714;2022-08-01T03:02:27;99784.50;;;18.04;100.00
71195;BME280;58908;51.426;7.714;2022-08-01T03:04:53;99782.97;;;18.01;100.00
71195;BME280;58908;51.426;7.714;2022-08-01T03:07:20;99789.00;;;18.03;100.00
71195;BME280;58908;51.426;7.714;2022-08-01T03:09:45;99789.84;;;18.04;100.00
71195;BME280;58908;51.426;7.714;2022-08-01T03:12:13;99789.00;;;18.03;100.00
71195;BME280;58908;51.426;7.714;2022-08-01T03:14:39;99786.47;;;18.02;100.00
71195;BME280;58908;51.426;7.714;2022-08-01T03:17:05;99794.47;;;18.02;100.00
71195;BME280;58908;51.426;7.714;2022-08-01T03:19:32;99787.84;;;17.96;100.00
71195;BME280;58908;51.426;7.714;2022-08-01T03:21:58;99788.41;;;18.00;100.00
71195;BME280;58908;51.426;7.714;2022-08-01T03:24:24;99784.19;;;17.97;100.00
71195;BME280;58908;51.426;7.714;2022-08-01T03:26:50;99777.75;;;18.00;100.00
71195;BME280;58908;51.426;7.714;2022-08-01T03:29:17;99778.84;;;17.97;100.00
71195;BME280;58908;51.426;7.714;2022-08-01T03:31:43;99779.72;;;17.98;100.00
71195;BME280;58908;51.426;7.714;2022-08-01T03:34:09;99786.72;;;17.99;100.00
71195;BME280;58908;51.426;7.714;2022-08-01T03:36:36;99784.19;;;17.97;100.00
71195;BME280;58908;51.426;7.714;2022-08-01T03:39:03;99791.09;;;18.00;100.00
71195;BME280;58908;51.426;7.714;2022-08-01T03:41:32;99792.47;;;17.94;100.00
71195;BME280;58908;51.426;7.714;2022-08-01T03:44:02;99791.75;;;17.92;100.00
71195;BME280;58908;51.426;7.714;2022-08-01T03:46:32;99791.50;;;17.95;100.00
71195;BME280;58908;51.426;7.714;2022-08-01T03:48:58;99796.69;;;17.97;100.00
71195;BME280;58908;51.426;7.714;2022-08-01T03:51:25;99802.16;;;17.95;100.00
71195;BME280;58908;51.426;7.714;2022-08-01T03:53:50;99802.28;;;17.94;100.00
71195;BME280;58908;51.426;7.714;2022-08-01T03:56:16;99795.94;;;17.85;100.00
71195;BME280;58908;51.426;7.714;2022-08-01T03:58:44;99801.25;;;17.85;100.00
71195;BME280;58908;51.426;7.714;2022-08-01T04:01:09;99807.00;;;17.81;100.00
71195;BME280;58908;51.426;7.714;2022-08-01T04:03:35;99810.13;;;17.86;100.00
71195;BME280;58908;51.426;7.714;2022-08-01T04:06:03;99805.78;;;17.85;100.00
71195;BME280;58908;51.426;7.714;2022-08-01T04:08:35;99804.47;;;17.59;100.00
71195;BME280;58908;51.426;7.714;2022-08-01T04:11:01;99807.00;;;17.60;100.00
71195;BME280;58908;51.426;7.714;2022-08-01T04:13:26;99811.38;;;17.61;100.00
71195;BME280;58908;51.426;7.714;2022-08-01T04:15:51;99809.28;;;17.65;100.00
71195;BME280;58908;51.426;7.714;2022-08-01T04:18:16;99814.03;;;17.61;100.00
71195;BME280;58908;51.426;7.714;2022-08-01T04:20:41;99814.16;;;17.60;100.00
71195;BME280;58908;51.426;7.714;2022-08-01T04:23:06;99811.38;;;17.61;100.00
71195;BME280;58908;51.426;7.714;2022-08-01T04:25:33;99810.53;;;17.61;100.00
71195;BME280;58908;51.426;7.714;2022-08-01T04:28:00;99816.44;;;17.64;100.00
71195;BME280;58908;51.426;7.714;2022-08-01T04:30:29;99820.78;;;17.65;100.00
71195;BME280;58908;51.426;7.714;2022-08-01T04:32:56;99829.53;;;17.67;100.00
71195;BME280;58908;51.426;7.714;2022-08-01T04:35:22;99830.09;;;17.71;100.00
71195;BME280;58908;51.426;7.714;2022-08-01T04:37:49;99830.38;;;17.68;100.00
71195;BME280;58908;51.426;7.714;2022-08-01T04:40:16;99830.56;;;17.76;100.00
71195;BME280;58908;51.426;7.714;2022-08-01T04:42:42;99825.50;;;17.73;100.00
71195;BME280;58908;51.426;7.714;2022-08-01T04:45:07;99826.22;;;17.75;100.00
71195;BME280;58908;51.426;7.714;2022-08-01T04:47:33;99836.03;;;17.74;100.00
71195;BME280;58908;51.426;7.714;2022-08-01T04:49:59;99831.41;;;17.76;100.00
71195;BME280;58908;51.426;7.714;2022-08-01T04:52:31;99834.94;;;17.77;100.00
71195;BME280;58908;51.426;7.714;2022-08-01T04:54:57;99837.53;;;17.88;100.00
71195;BME280;58908;51.426;7.714;2022-08-01T04:57:22;99847.88;;;17.81;100.00
71195;BME280;58908;51.426;7.714;2022-08-01T04:59:47;99843.72;;;17.88;100.00
71195;BME280;58908;51.426;7.714;2022-08-01T05:02:16;99841.88;;;17.89;100.00
71195;BME280;58908;51.426;7.714;2022-08-01T05:04:41;99840.41;;;17.96;100.00
71195;BME280;58908;51.426;7.714;2022-08-01T05:07:07;99840.72;;;18.02;100.00
71195;BME280;58908;51.426;7.714;2022-08-01T05:09:32;99836.66;;;18.08;100.00
71195;BME280;58908;51.426;7.714;2022-08-01T05:11:58;99838.34;;;18.09;100.00
71195;BME280;58908;51.426;7.714;2022-08-01T05:14:24;99849.53;;;18.03;100.00
71195;BME280;58908;51.426;7.714;2022-08-01T05:16:50;99842.25;;;18.05;100.00
71195;BME280;58908;51.426;7.714;2022-08-01T05:19:16;99846.22;;;18.10;100.00
71195;BME280;58908;51.426;7.714;2022-08-01T05:21:41;99852.59;;;18.19;100.00
71195;BME280;58908;51.426;7.714;2022-08-01T05:24:06;99842.06;;;18.27;100.00
71195;BME280;58908;51.426;7.714;2022-08-01T05:26:31;99852.22;;;18.23;100.00
71195;BME280;58908;51.426;7.714;2022-08-01T05:28:57;99854.97;;;18.12;100.00
71195;BME280;58908;51.426;7.714;2022-08-01T05:31:23;99850.91;;;18.18;100.00
71195;BME280;58908;51.426;7.714;2022-08-01T05:33:48;99857.47;;;18.14;100.00
71195;BME280;58908;51.426;7.714;2022-08-01T05:36:13;99860.03;;;18.15;100.00
71195;BME280;58908;51.426;7.714;2022-08-01T05:38:38;99863.41;;;18.17;100.00
71195;BME280;58908;51.426;7.714;2022-08-01T05:41:04;99859.34;;;18.23;100.00
71195;BME280;58908;51.426;7.714;2022-08-01T05:43:29;99862.69;;;18.15;100.00
71195;BME280;58908;51.426;7.714;2022-08-01T05:45:54;99869.84;;;18.15;100.00
71195;BME280;58908;51.426;7.714;2022-08-01T05:48:19;99870.00;;;18.13;100.00
71195;BME280;58908;51.426;7.714;2022-08-01T05:50:45;99877.84;;;18.15;100.00
71195;BME280;58908;51.426;7.714;2022-08-01T05:53:10;99869.44;;;18.19;100.00
71195;BME280;58908;51.426;7.714;2022-08-01T05:55:35;99877.75;;;18.16;100.00
71195;BME280;58908;51.426;7.714;2022-08-01T05:58:01;99878.91;;;18.23;100.00
71195;BME280;58908;51.426;7.714;2022-08-01T06:00:26;99887.63;;;18.25;100.00
71195;BME280;58908;51.426;7.714;2022-08-01T06:02:51;99876.50;;;18.41;100.00
71195;BME280;58908;51.426;7.714;2022-08-01T06:05:16;99880.00;;;18.41;100.00
71195;BME280;58908;51.426;7.714;2022-08-01T06:07:42;99879.84;;;18.33;100.00
71195;BME280;58908;51.426;7.714;2022-08-01T06:10:07;99876.94;;;18.25;100.00
71195;BME280;58908;51.426;7.714;2022-08-01T06:12:33;99885.94;;;18.24;100.00
71195;BME280;58908;51.426;7.714;2022-08-01T06:14:58;99878.88;;;18.34;100.00
71195;BME280;58908;51.426;7.714;2022-08-01T06:17:24;99884.22;;;18.34;100.00
71195;BME280;58908;51.426;7.714;2022-08-01T06:19:49;99887.00;;;18.33;100.00
71195;BME280;58908;51.426;7.714;2022-08-01T06:22:14;99878.03;;;18.43;100.00
71195;BME280;58908;51.426;7.714;2022-08-01T06:24:39;99886.41;;;18.59;100.00
71195;BME280;58908;51.426;7.714;2022-08-01T06:27:04;99884.75;;;18.68;100.00
71195;BME280;58908;51.426;7.714;2022-08-01T06:29:30;99886.13;;;19.02;100.00
71195;BME280;58908;51.426;7.714;2022-08-01T06:31:56;99892.09;;;18.75;100.00
71195;BME280;58908;51.426;7.714;2022-08-01T06:34:21;99884.66;;;18.79;100.00
71195;BME280;58908;51.426;7.714;2022-08-01T06:36:47;99893.06;;;18.74;100.00
71195;BME280;58908;51.426;7.714;2022-08-01T06:39:12;99891.34;;;19.03;100.00
71195;BME280;58908;51.426;7.714;2022-08-01T06:41:37;99889.78;;;19.50;100.00
71195;BME280;58908;51.426;7.714;2022-08-01T06:44:02;99885.09;;;19.23;100.00
71195;BME280;58908;51.426;7.714;2022-08-01T06:46:29;99889.78;;;19.01;100.00
71195;BME280;58908;51.426;7.714;2022-08-01T06:48:54;99888.78;;;18.92;100.00
71195;BME280;58908;51.426;7.714;2022-08-01T06:51:19;99882.72;;;19.30;100.00
71195;BME280;58908;51.426;7.714;2022-08-01T06:53:45;99888.75;;;19.88;100.00
71195;BME280;58908;51.426;7.714;2022-08-01T06:56:11;99884.81;;;20.11;100.00
71195;BME280;58908;51.426;7.714;2022-08-01T06:58:36;99879.44;;;20.11;100.00
71195;BME280;58908;51.426;7.714;2022-08-01T07:01:02;99886.63;;;20.01;99.17
71195;BME280;58908;51.426;7.714;2022-08-01T07:03:28;99888.47;;;19.82;98.61
71195;BME280;58908;51.426;7.714;2022-08-01T07:05:53;99885.94;;;19.71;96.86
71195;BME280;58908;51.426;7.714;2022-08-01T07:08:19;99880.00;;;19.77;98.44
71195;BME280;58908;51.426;7.714;2022-08-01T07:10:44;99887.22;;;19.95;98.79
71195;BME280;58908;51.426;7.714;2022-08-01T07:13:09;99881.25;;;20.20;97.76
71195;BME280;58908;51.426;7.714;2022-08-01T07:15:34;99887.06;;;19.87;98.31
71195;BME280;58908;51.426;7.714;2022-08-01T07:17:59;99890.03;;;19.84;98.44
71195;BME280;58908;51.426;7.714;2022-08-01T07:20:28;99883.16;;;19.44;98.82
71195;BME280;58908;51.426;7.714;2022-08-01T07:22:53;99881.72;;;19.59;99.40
71195;BME280;58908;51.426;7.714;2022-08-01T07:25:19;99881.44;;;19.62;97.94
71195;BME280;58908;51.426;7.714;2022-08-01T07:27:44;99884.00;;;19.63;96.41
71195;BME280;58908;51.426;7.714;2022-08-01T07:30:09;99887.69;;;20.37;91.81
71195;BME280;58908;51.426;7.714;2022-08-01T07:32:34;99878.75;;;20.82;88.78
71195;BME280;58908;51.426;7.714;2022-08-01T07:35:00;99885.81;;;20.83;90.57
71195;BME280;58908;51.426;7.714;2022-08-01T07:37:26;99884.88;;;20.38;91.14
71195;BME280;58908;51.426;7.714;2022-08-01T07:39:51;99882.97;;;21.91;89.94
71195;BME280;58908;51.426;7.714;2022-08-01T07:42:16;99886.56;;;24.07;79.05
71195;BME280;58908;51.426;7.714;2022-08-01T07:44:41;99878.97;;;24.10;73.57
71195;BME280;58908;51.426;7.714;2022-08-01T07:47:06;99880.59;;;22.56;81.99
71195;BME280;58908;51.426;7.714;2022-08-01T07:49:32;99885.03;;;21.27;84.08
71195;BME280;58908;51.426;7.714;2022-08-01T07:51:57;99892.88;;;21.11;88.09
71195;BME280;58908;51.426;7.714;2022-08-01T07:54:22;99894.00;;;20.82;86.59
71195;BME280;58908;51.426;7.714;2022-08-01T07:56:49;99897.28;;;20.76;87.62
71195;BME280;58908;51.426;7.714;2022-08-01T07:59:14;99894.50;;;20.68;88.46
71195;BME280;58908;51.426;7.714;2022-08-01T08:01:39;99892.03;;;20.84;91.96
71195;BME280;58908;51.426;7.714;2022-08-01T08:04:04;99895.97;;;20.89;91.32
71195;BME280;58908;51.426;7.714;2022-08-01T08:06:29;99887.00;;;22.38;87.95
71195;BME280;58908;51.426;7.714;2022-08-01T08:08:55;99899.75;;;21.58;85.94
71195;BME280;58908;51.426;7.714;2022-08-01T08:11:20;99900.94;;;21.56;86.11
71195;BME280;58908;51.426;7.714;2022-08-01T08:13:45;99898.19;;;21.38;85.63
71195;BME280;58908;51.426;7.714;2022-08-01T08:16:10;99905.00;;;21.15;85.30
71195;BME280;58908;51.426;7.714;2022-08-01T08:18:35;99901.06;;;21.37;86.98
71195;BME280;58908;51.426;7.714;2022-08-01T08:21:01;99905.75;;;21.35;87.10
71195;BME280;58908;51.426;7.714;2022-08-01T08:23:26;99904.06;;;20.70;85.40
71195;BME280;58908;51.426;7.714;2022-08-01T08:26:11;99911.47;;;20.49;87.78
71195;BME280;58908;51.426;7.714;2022-08-01T08:28:36;99908.16;;;20.74;91.11
71195;BME280;58908;51.426;7.714;2022-08-01T08:31:01;99914.84;;;20.97;87.39
71195;BME280;58908;51.426;7.714;2022-08-01T08:33:26;99913.50;;;22.50;80.50
71195;BME280;58908;51.426;7.714;2022-08-01T08:35:51;99915.97;;;21.66;83.26
71195;BME280;58908;51.426;7.714;2022-08-01T08:38:19;99911.66;;;20.84;85.88
71195;BME280;58908;51.426;7.714;2022-08-01T08:40:44;99912.94;;;20.90;85.32
71195;BME280;58908;51.426;7.714;2022-08-01T08:43:09;99907.38;;;22.99;76.37
71195;BME280;58908;51.426;7.714;2022-08-01T08:45:35;99911.66;;;24.15;73.82
71195;BME280;58908;51.426;7.714;2022-08-01T08:48:00;99916.84;;;23.69;70.94
71195;BME280;58908;51.426;7.714;2022-08-01T08:50:26;99918.69;;;23.76;70.25
71195;BME280;58908;51.426;7.714;2022-08-01T08:52:52;99919.25;;;24.20;71.70
71195;BME280;58908;51.426;7.714;2022-08-01T08:55:17;99916.69;;;23.78;72.00
71195;BME280;58908;51.426;7.714;2022-08-01T08:57:43;99915.69;;;23.14;73.01
71195;BME280;58908;51.426;7.714;2022-08-01T09:00:09;99926.69;;;22.95;73.21
71195;BME280;58908;51.426;7.714;2022-08-01T09:02:35;99927.28;;;23.64;70.78
71195;BME280;58908;51.426;7.714;2022-08-01T09:05:00;99919.22;;;22.30;75.19
71195;BME280;58908;51.426;7.714;2022-08-01T09:07:26;99925.41;;;22.30;77.85
71195;BME280;58908;51.426;7.714;2022-08-01T09:09:51;99926.78;;;21.57;78.06
71195;BME280;58908;51.426;7.714;2022-08-01T09:12:17;99917.41;;;21.61;78.46
71195;BME280;58908;51.426;7.714;2022-08-01T09:14:46;99932.28;;;21.55;79.36
71195;BME280;58908;51.426;7.714;2022-08-01T09:17:12;99928.69;;;22.59;74.65
71195;BME280;58908;51.426;7.714;2022-08-01T09:19:42;99934.63;;;23.04;77.51
71195;BME280;58908;51.426;7.714;2022-08-01T09:22:08;99935.75;;;24.25;72.01
71195;BME280;58908;51.426;7.714;2022-08-01T09:24:34;99922.16;;;24.88;65.65
71195;BME280;58908;51.426;7.714;2022-08-01T09:27:00;99925.66;;;24.97;65.91
71195;BME280;58908;51.426;7.714;2022-08-01T09:29:27;99931.13;;;23.45;72.44
71195;BME280;58908;51.426;7.714;2022-08-01T09:31:53;99940.25;;;22.52;75.61
71195;BME280;58908;51.426;7.714;2022-08-01T09:34:51;99936.28;;;22.64;73.98
71195;BME280;58908;51.426;7.714;2022-08-01T09:37:11;99947.03;;;22.64;75.44
71195;BME280;58908;51.426;7.714;2022-08-01T09:39:36;99945.38;;;22.03;77.02
71195;BME280;58908;51.426;7.714;2022-08-01T09:42:26;99943.59;;;21.94;79.24
71195;BME280;58908;51.426;7.714;2022-08-01T09:44:51;99944.84;;;21.99;76.88
71195;BME280;58908;51.426;7.714;2022-08-01T09:47:18;99951.22;;;21.98;78.15
71195;BME280;58908;51.426;7.714;2022-08-01T09:49:45;99943.28;;;21.79;77.63
71195;BME280;58908;51.426;7.714;2022-08-01T09:52:18;99953.25;;;22.04;78.93
71195;BME280;58908;51.426;7.714;2022-08-01T09:54:51;99957.44;;;23.26;72.47
71195;BME280;58908;51.426;7.714;2022-08-01T09:57:17;99951.09;;;24.08;68.33
71195;BME280;58908;51.426;7.714;2022-08-01T09:59:43;99951.25;;;24.15;67.53
71195;BME280;58908;51.426;7.714;2022-08-01T10:02:10;99945.16;;;24.69;64.49
71195;BME280;58908;51.426;7.714;2022-08-01T10:04:37;99940.22;;;25.65;63.66
71195;BME280;58908;51.426;7.714;2022-08-01T10:07:10;99946.75;;;26.60;65.65
71195;BME280;58908;51.426;7.714;2022-08-01T10:09:36;99938.56;;;27.26;60.17
71195;BME280;58908;51.426;7.714;2022-08-01T10:12:02;99939.66;;;25.08;64.13
71195;BME280;58908;51.426;7.714;2022-08-01T10:14:28;99937.00;;;23.41;67.31
71195;BME280;58908;51.426;7.714;2022-08-01T10:16:53;99943.28;;;23.73;67.39
71195;BME280;58908;51.426;7.714;2022-08-01T10:19:24;99942.31;;;24.62;63.38
71195;BME280;58908;51.426;7.714;2022-08-01T10:21:53;99935.22;;;25.54;60.71
71195;BME280;58908;51.426;7.714;2022-08-01T10:24:22;99949.38;;;23.99;64.70
71195;BME280;58908;51.426;7.714;2022-08-01T10:26:48;99938.22;;;23.13;68.42
71195;BME280;58908;51.426;7.714;2022-08-01T10:29:14;99937.16;;;22.72;70.64
71195;BME280;58908;51.426;7.714;2022-08-01T10:31:41;99945.66;;;22.60;73.69
71195;BME280;58908;51.426;7.714;2022-08-01T10:34:06;99942.72;;;22.45;69.56
71195;BME280;58908;51.426;7.714;2022-08-01T10:36:31;99945.16;;;22.56;70.44
71195;BME280;58908;51.426;7.714;2022-08-01T10:38:58;99945.84;;;23.25;66.95
71195;BME280;58908;51.426;7.714;2022-08-01T10:41:24;99942.31;;;24.62;63.67
71195;BME280;58908;51.426;7.714;2022-08-01T10:43:49;99947.38;;;25.11;60.74
71195;BME280;58908;51.426;7.714;2022-08-01T10:46:17;99941.50;;;25.08;60.67
71195;BME280;58908;51.426;7.714;2022-08-01T10:48:45;99947.00;;;24.52;60.72
71195;BME280;58908;51.426;7.714;2022-08-01T10:51:12;99935.06;;;25.55;60.91
71195;BME280;58908;51.426;7.714;2022-08-01T10:53:45;99931.78;;;25.68;58.13
71195;BME280;58908;51.426;7.714;2022-08-01T10:56:10;99935.28;;;25.99;58.91
71195;BME280;58908;51.426;7.714;2022-08-01T10:58:37;99937.63;;;26.76;54.69
71195;BME280;58908;51.426;7.714;2022-08-01T11:01:24;99934.56;;;26.27;55.61
71195;BME280;58908;51.426;7.714;2022-08-01T11:06:26;99929.00;;;25.53;57.38
71195;BME280;58908;51.426;7.714;2022-08-01T11:08:54;99928.91;;;26.14;56.11
71195;BME280;58908;51.426;7.714;2022-08-01T11:11:19;99920.16;;;25.29;58.03
71195;BME280;58908;51.426;7.714;2022-08-01T11:16:26;99928.97;;;23.81;64.63
71195;BME280;58908;51.426;7.714;2022-08-01T11:18:52;99930.63;;;23.66;66.53
71195;BME280;58908;51.426;7.714;2022-08-01T11:21:17;99929.28;;;23.54;64.60
71195;BME280;58908;51.426;7.714;2022-08-01T11:23:47;99935.38;;;23.72;65.82
71195;BME280;58908;51.426;7.714;2022-08-01T11:26:13;99932.41;;;23.99;64.42
71195;BME280;58908;51.426;7.714;2022-08-01T11:28:38;99927.63;;;24.49;61.45
71195;BME280;58908;51.426;7.714;2022-08-01T11:38:35;99937.81;;;22.66;72.94
71195;BME280;58908;51.426;7.714;2022-08-01T11:47:07;99946.28;;;22.11;75.11
71195;BME280;58908;51.426;7.714;2022-08-01T11:51:58;99947.88;;;22.04;75.25
71195;BME280;58908;51.426;7.714;2022-08-01T11:54:28;99954.34;;;21.76;76.62
71195;BME280;58908;51.426;7.714;2022-08-01T11:56:54;99951.53;;;21.95;76.03
71195;BME280;58908;51.426;7.714;2022-08-01T11:59:20;99947.84;;;22.21;76.28
71195;BME280;58908;51.426;7.714;2022-08-01T12:01:46;99950.97;;;21.92;76.48
71195;BME280;58908;51.426;7.714;2022-08-01T12:04:11;99962.09;;;21.79;75.55
71195;BME280;58908;51.426;7.714;2022-08-01T12:06:36;99960.44;;;21.51;76.71
71195;BME280;58908;51.426;7.714;2022-08-01T12:09:17;99947.44;;;21.74;76.33
71195;BME280;58908;51.426;7.714;2022-08-01T12:11:42;99948.47;;;21.46;78.19
71195;BME280;58908;51.426;7.714;2022-08-01T12:14:08;99957.81;;;21.59;76.46
71195;BME280;58908;51.426;7.714;2022-08-01T12:16:33;99953.88;;;21.63;75.27
71195;BME280;58908;51.426;7.714;2022-08-01T12:18:58;99952.22;;;21.80;74.66
71195;BME280;58908;51.426;7.714;2022-08-01T12:21:24;99948.84;;;22.20;74.36
71195;BME280;58908;51.426;7.714;2022-08-01T12:24:01;99949.97;;;21.93;75.36
71195;BME280;58908;51.426;7.714;2022-08-01T12:26:42;99954.97;;;22.05;73.97
71195;BME280;58908;51.426;7.714;2022-08-01T12:29:07;99959.41;;;21.79;74.93
71195;BME280;58908;51.426;7.714;2022-08-01T12:31:33;99963.75;;;22.15;72.67
71195;BME280;58908;51.426;7.714;2022-08-01T12:33:58;99969.59;;;21.76;73.36
71195;BME280;58908;51.426;7.714;2022-08-01T12:36:43;99963.75;;;21.63;74.18
71195;BME280;58908;51.426;7.714;2022-08-01T12:39:08;99962.50;;;21.84;74.49
71195;BME280;58908;51.426;7.714;2022-08-01T12:41:34;99964.19;;;21.85;73.67
71195;BME280;58908;51.426;7.714;2022-08-01T12:44:01;99978.84;;;21.91;72.62
71195;BME280;58908;51.426;7.714;2022-08-01T12:46:26;99977.56;;;22.80;70.57
71195;BME280;58908;51.426;7.714;2022-08-01T12:48:51;99978.25;;;22.57;68.34
71195;BME280;58908;51.426;7.714;2022-08-01T12:51:17;99968.13;;;22.33;69.26
71195;BME280;58908;51.426;7.714;2022-08-01T12:53:42;99963.03;;;22.48;70.76
71195;BME280;58908;51.426;7.714;2022-08-01T12:56:08;99970.97;;;23.00;68.65
71195;BME280;58908;51.426;7.714;2022-08-01T12:58:35;99979.03;;;22.75;69.34
71195;BME280;58908;51.426;7.714;2022-08-01T13:01:07;99967.69;;;22.03;71.46
71195;BME280;58908;51.426;7.714;2022-08-01T13:03:33;99959.47;;;22.39;70.37
71195;BME280;58908;51.426;7.714;2022-08-01T13:05:58;99976.84;;;21.93;71.89
71195;BME280;58908;51.426;7.714;2022-08-01T13:08:24;99967.78;;;21.94;71.69
71195;BME280;58908;51.426;7.714;2022-08-01T13:10:50;99971.50;;;22.53;68.90
71195;BME280;58908;51.426;7.714;2022-08-01T13:13:24;99962.69;;;22.94;68.63
71195;BME280;58908;51.426;7.714;2022-08-01T13:15:49;99965.22;;;22.44;68.00
71195;BME280;58908;51.426;7.714;2022-08-01T13:18:28;99963.84;;;22.40;69.53
71195;BME280;58908;51.426;7.714;2022-08-01T13:21:07;99958.72;;;22.80;68.40
71195;BME280;58908;51.426;7.714;2022-08-01T13:23:33;99977.28;;;22.23;67.00
71195;BME280;58908;51.426;7.714;2022-08-01T13:25:58;99974.50;;;22.15;67.32